createdAt,value
2023-05-04T04:04:13.370Z,98228.53
2023-05-04T04:06:43.415Z,98222.22
2023-05-04T04:09:12.163Z,98230.16
2023-05-04T04:11:40.257Z,98232.72
2023-05-04T04:14:08.355Z,98234.56
2023-05-04T04:16:36.841Z,98231.75
2023-05-04T04:19:04.813Z,98225.94
2023-05-04T04:21:34.276Z,98221.63
2023-05-04T04:24:02.617Z,98234.16
2023-05-04T04:26:30.468Z,98226.16
2023-05-04T04:28:58.226Z,98219.13
2023-05-04T04:31:26.635Z,98239.97
2023-05-04T04:33:54.565Z,98242.22
2023-05-04T04:36:22.863Z,98237.47
2023-05-04T04:38:52.798Z,98227.28
2023-05-04T04:41:20.884Z,98235.13
2023-05-04T04:43:48.758Z,98249.16
2023-05-04T04:46:17.520Z,98236.16
2023-05-04T04:48:45.472Z,98239.50
2023-05-04T04:51:13.638Z,98239.16
2023-05-04T04:53:42.207Z,98262.31
2023-05-04T04:56:11.718Z,98302.22
2023-05-04T04:58:39.464Z,98287.56
2023-05-04T05:01:08.253Z,98252.88
2023-05-04T05:03:36.450Z,98255.13
2023-05-04T05:06:04.322Z,98237.22
2023-05-04T05:08:34.407Z,98247.94
2023-05-04T05:11:02.099Z,98251.44
2023-05-04T05:13:31.430Z,98258.41
2023-05-04T05:15:59.796Z,98287.56
2023-05-04T05:18:29.450Z,98302.66
2023-05-04T05:20:57.865Z,98275.72
2023-05-04T05:23:26.019Z,98291.91
2023-05-04T05:25:56.133Z,98301.81
2023-05-04T05:28:24.717Z,98295.53
2023-05-04T05:30:54.803Z,98301.47
2023-05-04T05:33:23.730Z,98306.63
2023-05-04T05:35:52.636Z,98275.53
2023-05-04T05:38:21.939Z,98266.72
2023-05-04T05:40:49.757Z,98328.38
2023-05-04T05:43:17.900Z,98312.09
2023-05-04T05:45:46.278Z,98339.41
2023-05-04T05:48:15.752Z,98313.31
2023-05-04T05:50:43.520Z,98353.09
2023-05-04T05:53:12.006Z,98332.63
2023-05-04T05:55:39.761Z,98369.28
2023-05-04T05:58:08.686Z,98367.97
2023-05-04T06:00:36.997Z,98428.81
2023-05-04T06:03:05.684Z,98405.00
2023-05-04T06:05:36.652Z,98396.72
2023-05-04T06:08:04.610Z,98395.69
2023-05-04T06:10:33.530Z,98371.50
2023-05-04T06:13:01.927Z,98423.56
2023-05-04T06:15:30.190Z,98467.31
2023-05-04T06:17:58.193Z,98468.47
2023-05-04T06:20:26.572Z,98443.75
2023-05-04T06:22:55.947Z,98481.31
2023-05-04T06:25:23.910Z,98461.22
2023-05-04T06:27:53.006Z,98494.34
2023-05-04T06:30:24.306Z,98432.63
2023-05-04T06:32:52.344Z,98449.56
2023-05-04T06:35:20.971Z,98383.34
2023-05-04T06:37:48.899Z,98471.72
2023-05-04T06:40:20.740Z,98478.63
2023-05-04T06:42:49.276Z,98448.00
2023-05-04T06:45:17.421Z,98467.41
2023-05-04T06:47:45.793Z,98383.31
2023-05-04T06:50:14.860Z,98448.50
2023-05-04T06:52:45.292Z,98424.06
2023-05-04T06:55:13.670Z,98536.16
2023-05-04T06:57:43.672Z,98479.47
2023-05-04T07:00:12.691Z,98469.75
2023-05-04T07:02:40.654Z,98436.63
2023-05-04T07:05:09.498Z,98484.75
2023-05-04T07:07:38.180Z,98489.72
2023-05-04T07:10:07.046Z,98474.59
2023-05-04T07:12:35.681Z,98456.94
2023-05-04T07:15:06.701Z,98424.97
2023-05-04T07:17:34.824Z,98456.22
2023-05-04T07:20:03.894Z,98435.75
2023-05-04T07:22:32.850Z,98376.16
2023-05-04T07:25:01.421Z,98457.47
2023-05-04T07:27:31.993Z,98471.88
2023-05-04T07:30:01.778Z,98485.06
2023-05-04T07:32:31.514Z,98515.78
2023-05-04T07:34:59.794Z,98487.84
2023-05-04T07:37:27.771Z,98457.13
2023-05-04T07:39:56.376Z,98489.09
2023-05-04T07:42:24.403Z,98461.03
2023-05-04T07:44:53.338Z,98487.47
2023-05-04T07:47:22.728Z,98431.53
2023-05-04T07:49:52.322Z,98487.44
2023-05-04T07:52:20.506Z,98489.81
2023-05-04T07:54:49.156Z,98409.03
2023-05-04T07:57:17.530Z,98427.59
2023-05-04T07:59:45.662Z,98465.56
2023-05-04T08:02:14.127Z,98358.13
2023-05-04T08:04:42.163Z,98403.66
2023-05-04T08:07:11.794Z,98519.31
2023-05-04T08:09:40.336Z,98522.78
2023-05-04T08:12:09.892Z,98458.75
2023-05-04T08:14:38.458Z,98481.41
2023-05-04T08:17:07.019Z,98409.94
2023-05-04T08:19:35.451Z,98483.69
2023-05-04T08:22:04.565Z,98508.16
2023-05-04T08:24:34.018Z,98478.84
2023-05-04T08:27:07.822Z,98466.25
2023-05-04T08:29:38.029Z,98452.31
2023-05-04T08:32:07.728Z,98508.22
2023-05-04T08:34:36.656Z,98464.69
2023-05-04T08:37:06.359Z,98437.22
2023-05-04T08:39:35.810Z,98476.13
2023-05-04T08:42:03.840Z,98485.56
2023-05-04T08:44:32.420Z,98449.56
2023-05-04T08:47:00.432Z,98469.06
2023-05-04T08:49:29.172Z,98479.13
2023-05-04T08:51:58.166Z,98473.00
2023-05-04T08:54:27.334Z,98467.72
2023-05-04T08:56:59.218Z,98403.31
2023-05-04T08:59:29.781Z,98415.69
2023-05-04T09:02:00.405Z,98511.78
2023-05-04T09:04:29.670Z,98549.94
2023-05-04T09:06:58.547Z,98543.22
2023-05-04T09:09:29.580Z,98517.19
2023-05-04T09:11:59.722Z,98416.84
2023-05-04T09:14:36.106Z,98425.25
2023-05-04T09:17:05.086Z,98458.91
2023-05-04T09:19:34.894Z,98487.00
2023-05-04T09:22:03.939Z,98473.19
2023-05-04T09:24:31.952Z,98445.91
2023-05-04T09:27:11.390Z,98418.09
2023-05-04T09:29:40.773Z,98423.69
2023-05-04T09:32:14.764Z,98468.25
2023-05-04T09:34:52.936Z,98448.22
2023-05-04T09:37:22.421Z,98441.44
2023-05-04T09:39:55.437Z,98447.28
2023-05-04T09:42:27.344Z,98385.75
2023-05-04T09:45:03.231Z,98369.25
2023-05-04T09:47:36.318Z,98364.84
2023-05-04T09:50:20.758Z,98417.22
2023-05-04T09:52:50.479Z,98477.28
2023-05-04T09:55:20.343Z,98464.88
2023-05-04T09:57:51.969Z,98354.53
2023-05-04T10:00:21.477Z,98394.09
2023-05-04T10:02:50.226Z,98430.81
2023-05-04T10:05:24.716Z,98399.19
2023-05-04T10:07:53.319Z,98421.94
2023-05-04T10:10:21.938Z,98456.03
2023-05-04T10:12:53.293Z,98397.16
2023-05-04T10:15:24.745Z,98315.06
2023-05-04T10:18:05.003Z,98357.53
2023-05-04T10:20:55.914Z,98302.66
2023-05-04T10:23:45.789Z,98354.56
2023-05-04T10:26:36.289Z,98372.25
2023-05-04T10:29:14.552Z,98328.44
2023-05-04T10:31:46.107Z,98348.00
2023-05-04T10:34:26.476Z,98381.97
2023-05-04T10:36:55.900Z,98361.69
2023-05-04T10:39:25.008Z,98346.09
2023-05-04T10:42:02.241Z,98324.41
2023-05-04T10:44:33.114Z,98235.09
2023-05-04T10:47:04.057Z,98234.06
2023-05-04T10:49:34.553Z,98260.19
2023-05-04T10:52:14.180Z,98295.78
2023-05-04T10:54:44.323Z,98231.44
2023-05-04T10:57:18.214Z,98255.63
2023-05-04T10:59:58.996Z,98267.47
2023-05-04T11:02:32.409Z,98253.41
2023-05-04T11:05:04.808Z,98230.13
2023-05-04T11:07:38.866Z,98239.84
2023-05-04T11:10:09.770Z,98209.88
2023-05-04T11:12:40.438Z,98210.97
2023-05-04T11:15:11.790Z,98196.00
2023-05-04T11:17:47.392Z,98173.22
2023-05-04T11:20:23.191Z,98245.91
2023-05-04T11:22:52.572Z,98224.63
2023-05-04T11:25:29.870Z,98195.28
2023-05-04T11:28:01.332Z,98193.19
2023-05-04T11:30:36.036Z,98176.78
2023-05-04T11:33:13.014Z,98189.16
2023-05-04T11:35:44.109Z,98158.75
2023-05-04T11:38:15.058Z,98195.53
2023-05-04T11:40:49.985Z,98178.22
2023-05-04T11:43:20.356Z,98191.56
2023-05-04T11:45:51.314Z,98196.56
2023-05-04T11:48:21.793Z,98179.72
2023-05-04T11:50:52.402Z,98134.28
2023-05-04T11:53:23.838Z,98190.63
2023-05-04T11:55:54.953Z,98131.56
2023-05-04T11:58:27.457Z,98122.41
2023-05-04T12:01:01.325Z,98168.03
2023-05-04T12:03:51.304Z,98155.03
2023-05-04T12:06:32.751Z,98149.34
2023-05-04T12:09:06.596Z,98128.09
2023-05-04T12:11:38.719Z,98165.03
2023-05-04T12:14:10.271Z,98159.81
2023-05-04T12:16:43.447Z,98137.44
2023-05-04T12:19:14.715Z,98117.59
2023-05-04T12:21:52.452Z,98140.78
2023-05-04T12:24:23.878Z,98129.41
2023-05-04T12:26:53.465Z,98099.06
2023-05-04T12:29:22.721Z,98116.25
2023-05-04T12:31:53.786Z,98135.75
2023-05-04T12:34:22.370Z,98103.13
2023-05-04T12:36:54.160Z,98110.06
2023-05-04T12:39:23.081Z,98139.41
2023-05-04T12:41:52.021Z,98117.72
2023-05-04T12:44:21.139Z,98084.22
2023-05-04T12:46:50.114Z,98088.38
2023-05-04T12:49:24.571Z,98089.69
2023-05-04T12:51:54.246Z,98095.75
2023-05-04T12:54:23.646Z,98098.38
2023-05-04T12:56:54.071Z,98074.63
2023-05-04T12:59:24.010Z,98113.94
2023-05-04T13:01:53.245Z,98124.38
2023-05-04T13:04:26.595Z,98137.91
2023-05-04T13:06:55.379Z,98114.66
2023-05-04T13:09:24.935Z,98091.63
2023-05-04T13:11:54.519Z,98091.63
2023-05-04T13:14:23.591Z,98101.44
2023-05-04T13:16:52.223Z,98099.44
2023-05-04T13:19:23.258Z,98076.97
2023-05-04T13:21:52.265Z,98079.47
2023-05-04T13:24:22.378Z,98068.44
2023-05-04T13:26:50.953Z,98050.13
2023-05-04T13:29:20.317Z,98074.41
2023-05-04T13:31:49.062Z,98050.28
2023-05-04T13:34:18.603Z,98030.84
2023-05-04T13:36:48.423Z,98026.94
2023-05-04T13:39:16.504Z,98027.16
2023-05-04T13:41:44.875Z,98027.81
2023-05-04T13:44:12.785Z,98045.34
2023-05-04T13:46:41.626Z,98026.88
2023-05-04T13:49:10.036Z,98036.22
2023-05-04T13:51:38.802Z,98030.03
2023-05-04T13:54:09.393Z,98014.50
2023-05-04T13:56:39.804Z,98043.72
2023-05-04T13:59:08.504Z,98071.56
2023-05-04T14:01:37.322Z,98063.22
2023-05-04T14:04:07.030Z,98027.94
2023-05-04T14:06:35.106Z,98027.59
2023-05-04T14:09:03.527Z,98022.44
2023-05-04T14:11:33.451Z,98015.25
2023-05-04T14:14:01.348Z,98016.91
2023-05-04T14:16:29.510Z,98000.66
2023-05-04T14:18:58.258Z,97988.06
2023-05-04T14:21:26.396Z,97989.31
2023-05-04T14:23:54.543Z,97980.66
2023-05-04T14:26:22.956Z,97975.31
2023-05-04T14:28:52.489Z,97986.53
2023-05-04T14:31:20.633Z,97981.63
2023-05-04T14:33:48.941Z,97946.47
2023-05-04T14:36:17.000Z,97969.84
2023-05-04T14:38:44.857Z,97972.88
2023-05-04T14:41:13.683Z,97974.28
2023-05-04T14:43:41.989Z,97977.41
2023-05-04T14:46:12.904Z,97975.94
2023-05-04T14:48:41.604Z,97961.22
2023-05-04T14:51:09.494Z,97978.66
2023-05-04T14:53:39.308Z,97970.44
2023-05-04T14:56:08.727Z,97949.72
2023-05-04T14:58:37.225Z,97937.84
2023-05-04T15:01:06.069Z,97950.56
2023-05-04T15:03:35.898Z,97952.34
2023-05-04T15:06:04.257Z,97945.75
2023-05-04T15:08:32.169Z,97910.31
2023-05-04T15:11:01.215Z,97897.53
2023-05-04T15:13:29.173Z,97907.78
2023-05-04T15:15:57.200Z,97901.19
2023-05-04T15:18:26.661Z,97907.22
2023-05-04T15:20:55.876Z,97906.50
2023-05-04T15:23:23.800Z,97909.06
2023-05-04T15:25:52.215Z,97906.47
2023-05-04T15:28:22.971Z,97889.72
2023-05-04T15:30:51.191Z,97910.19
2023-05-04T15:33:19.511Z,97892.13
2023-05-04T15:35:47.587Z,97900.09
2023-05-04T15:38:18.114Z,97882.31
2023-05-04T15:40:46.572Z,97891.22
2023-05-04T15:43:15.210Z,97884.63
2023-05-04T15:45:43.432Z,97869.41
2023-05-04T15:48:12.082Z,97874.66
2023-05-04T15:50:40.085Z,97880.06
2023-05-04T15:53:08.098Z,97860.56
2023-05-04T15:55:37.387Z,97865.66
2023-05-04T15:58:06.040Z,97867.09
2023-05-04T16:00:34.831Z,97881.78
2023-05-04T16:03:03.065Z,97869.97
2023-05-04T16:05:31.610Z,97845.38
2023-05-04T16:08:00.125Z,97836.41
2023-05-04T16:10:28.062Z,97828.94
2023-05-04T16:13:00.578Z,97826.75
2023-05-04T16:15:28.832Z,97833.84
2023-05-04T16:17:57.112Z,97836.47
2023-05-04T16:20:25.716Z,97834.00
2023-05-04T16:22:53.751Z,97831.09
2023-05-04T16:25:22.011Z,97822.47
2023-05-04T16:27:50.710Z,97830.03
2023-05-04T16:30:21.800Z,97812.69
2023-05-04T16:32:50.539Z,97823.00
2023-05-04T16:35:18.950Z,97825.78
2023-05-04T16:37:47.098Z,97808.75
2023-05-04T16:40:17.229Z,97811.97
2023-05-04T16:42:46.136Z,97808.84
2023-05-04T16:45:15.318Z,97802.25
2023-05-04T16:47:45.795Z,97808.25
2023-05-04T16:50:14.844Z,97803.44
2023-05-04T16:52:43.627Z,97799.75
2023-05-04T16:55:12.532Z,97790.78
2023-05-04T16:57:40.671Z,97783.16
2023-05-04T17:00:10.520Z,97770.91
2023-05-04T17:02:38.738Z,97772.47
2023-05-04T17:05:11.584Z,97775.00
2023-05-04T17:07:42.208Z,97774.16
2023-05-04T17:10:11.903Z,97771.25
2023-05-04T17:12:40.831Z,97768.88
2023-05-04T17:15:10.727Z,97769.53
2023-05-04T17:17:39.438Z,97764.88
2023-05-04T17:20:14.806Z,97765.47
2023-05-04T17:22:43.820Z,97764.34
2023-05-04T17:25:12.407Z,97767.13
2023-05-04T17:27:41.236Z,97755.47
2023-05-04T17:30:11.066Z,97754.75
2023-05-04T17:32:39.573Z,97756.94
2023-05-04T17:35:21.178Z,97741.28
2023-05-04T17:37:57.608Z,97752.72
2023-05-04T17:40:27.184Z,97759.13
2023-05-04T17:42:55.435Z,97757.94
2023-05-04T17:45:24.008Z,97754.13
2023-05-04T17:47:52.931Z,97754.38
2023-05-04T17:50:22.658Z,97751.53
2023-05-04T17:52:54.305Z,97756.59
2023-05-04T17:55:23.960Z,97745.50
2023-05-04T17:57:53.050Z,97746.38
2023-05-04T18:00:22.253Z,97742.25
2023-05-04T18:02:50.809Z,97738.41
2023-05-04T18:05:19.533Z,97737.00
2023-05-04T18:07:49.017Z,97737.56
2023-05-04T18:10:17.522Z,97739.56
2023-05-04T18:12:45.675Z,97741.25
2023-05-04T18:15:13.583Z,97734.63
2023-05-04T18:17:42.020Z,97732.03
2023-05-04T18:20:12.701Z,97721.69
2023-05-04T18:22:41.548Z,97725.94
2023-05-04T18:25:11.608Z,97733.50
2023-05-04T18:27:39.574Z,97733.63
2023-05-04T18:30:09.916Z,97729.38
2023-05-04T18:32:38.140Z,97729.91
2023-05-04T18:35:06.919Z,97723.31
2023-05-04T18:37:35.487Z,97723.81
2023-05-04T18:40:04.672Z,97726.91
2023-05-04T18:42:34.918Z,97729.19
2023-05-04T18:45:03.029Z,97730.38
2023-05-04T18:47:31.437Z,97734.72
2023-05-04T18:50:00.894Z,97735.88
2023-05-04T18:52:28.996Z,97742.41
2023-05-04T18:54:57.084Z,97723.66
2023-05-04T18:57:26.455Z,97732.13
2023-05-04T18:59:56.529Z,97720.78
2023-05-04T19:02:26.046Z,97734.28
2023-05-04T19:04:54.128Z,97735.34
2023-05-04T19:07:22.145Z,97737.50
2023-05-04T19:09:50.507Z,97736.25
2023-05-04T19:12:18.616Z,97738.06
2023-05-04T19:14:46.933Z,97737.81
2023-05-04T19:17:17.701Z,97741.81
2023-05-04T19:19:45.496Z,97738.38
2023-05-04T19:22:16.066Z,97745.00
2023-05-04T19:24:44.005Z,97738.09
2023-05-04T19:27:11.955Z,97730.13
2023-05-04T19:29:40.198Z,97749.34
2023-05-04T19:32:19.990Z,97745.13
2023-05-04T19:34:54.231Z,97742.94
2023-05-04T19:37:22.164Z,97742.25
2023-05-04T19:39:50.891Z,97748.16
2023-05-04T19:42:18.848Z,97748.31
2023-05-04T19:44:46.715Z,97740.28
2023-05-04T19:47:14.987Z,97740.56
2023-05-04T19:49:44.304Z,97744.94
2023-05-04T19:52:13.876Z,97742.81
2023-05-04T19:54:42.559Z,97740.47
2023-05-04T19:57:11.412Z,97742.13
2023-05-04T19:59:40.039Z,97746.66
2023-05-04T20:02:09.192Z,97729.69
2023-05-04T20:04:37.501Z,97734.25
2023-05-04T20:07:05.499Z,97730.09
2023-05-04T20:09:35.213Z,97727.56
2023-05-04T20:12:03.222Z,97727.34
2023-05-04T20:14:31.431Z,97722.34
2023-05-04T20:16:59.865Z,97720.97
2023-05-04T20:19:28.079Z,97722.75
2023-05-04T20:21:55.949Z,97722.44
2023-05-04T20:24:24.327Z,97719.09
2023-05-04T20:26:53.943Z,97711.41
2023-05-04T20:29:22.008Z,97728.25
2023-05-04T20:31:50.512Z,97732.28
2023-05-04T20:34:19.152Z,97745.00
2023-05-04T20:36:47.850Z,97734.94
2023-05-04T20:39:15.782Z,97749.16
2023-05-04T20:41:44.378Z,97752.03
2023-05-04T20:44:14.147Z,97745.97
2023-05-04T20:46:42.443Z,97743.56
2023-05-04T20:49:11.400Z,97740.19
2023-05-04T20:51:39.573Z,97749.16
2023-05-04T20:54:07.602Z,97747.75
2023-05-04T20:56:35.677Z,97750.13
2023-05-04T20:59:03.586Z,97749.81
2023-05-04T21:01:33.118Z,97744.22
2023-05-04T21:04:01.523Z,97743.25
2023-05-04T21:06:30.028Z,97738.63
2023-05-04T21:08:58.096Z,97752.56
2023-05-04T21:11:26.702Z,97741.53
2023-05-04T21:13:54.976Z,97750.66
2023-05-04T21:16:23.029Z,97739.13
2023-05-04T21:18:52.987Z,97743.44
2023-05-04T21:21:21.054Z,97751.63
2023-05-04T21:23:49.521Z,97746.81
2023-05-04T21:26:17.513Z,97747.94
2023-05-04T21:28:46.463Z,97742.97
2023-05-04T21:31:15.845Z,97732.56
2023-05-04T21:33:43.902Z,97736.22
2023-05-04T21:36:14.612Z,97717.50
2023-05-04T21:38:43.502Z,97728.38
2023-05-04T21:41:12.764Z,97731.09
2023-05-04T21:43:40.653Z,97724.06
2023-05-04T21:46:09.511Z,97723.06
2023-05-04T21:48:37.622Z,97719.81
2023-05-04T21:51:05.942Z,97719.81
2023-05-04T21:53:36.043Z,97724.00
2023-05-04T21:56:08.792Z,97728.31
2023-05-04T21:58:39.995Z,97728.81
2023-05-04T22:01:08.398Z,97725.72
2023-05-04T22:03:36.556Z,97735.19
2023-05-04T22:06:05.275Z,97718.63
2023-05-04T22:08:33.662Z,97721.81
2023-05-04T22:11:03.387Z,97726.66
2023-05-04T22:13:31.257Z,97724.34
2023-05-04T22:15:59.120Z,97722.72
2023-05-04T22:18:27.505Z,97725.13
2023-05-04T22:20:55.516Z,97731.56
2023-05-04T22:23:24.368Z,97719.03
2023-05-04T22:25:52.790Z,97724.16
2023-05-04T22:28:22.281Z,97715.00
2023-05-04T22:30:50.148Z,97711.63
2023-05-04T22:33:18.333Z,97711.47
2023-05-04T22:35:46.220Z,97720.25
2023-05-04T22:38:15.044Z,97717.47
2023-05-04T22:40:44.138Z,97723.97
2023-05-04T22:43:12.674Z,97724.94
2023-05-04T22:45:42.042Z,97730.25
2023-05-04T22:48:10.070Z,97735.38
2023-05-04T22:50:38.473Z,97732.28
2023-05-04T22:53:06.930Z,97734.31
2023-05-04T22:55:35.249Z,97731.50
2023-05-04T22:58:03.557Z,97731.72
2023-05-04T23:00:31.872Z,97735.28
2023-05-04T23:03:01.496Z,97732.69
2023-05-04T23:05:29.806Z,97741.41
2023-05-04T23:07:57.698Z,97738.75
2023-05-04T23:10:26.146Z,97717.63
2023-05-04T23:12:54.573Z,97727.88
2023-05-04T23:15:24.418Z,97711.19
2023-05-04T23:17:53.609Z,97730.78
2023-05-04T23:20:23.281Z,97725.41
2023-05-04T23:22:51.224Z,97716.63
2023-05-04T23:25:19.891Z,97719.97
2023-05-04T23:27:47.759Z,97723.44
2023-05-04T23:30:15.692Z,97718.88
2023-05-04T23:32:44.217Z,97706.63
2023-05-04T23:35:12.089Z,97711.75
2023-05-04T23:37:41.248Z,97715.97
2023-05-04T23:40:10.926Z,97717.66
2023-05-04T23:42:38.781Z,97725.03
2023-05-04T23:45:07.867Z,97720.69
2023-05-04T23:47:36.257Z,97714.88
2023-05-04T23:50:04.239Z,97714.56
2023-05-04T23:52:32.162Z,97718.28
2023-05-04T23:55:01.890Z,97724.00
2023-05-04T23:57:30.294Z,97715.88
2023-05-04T23:59:58.014Z,97699.94
